sensor_id;sensor_type;location;lat;lon;timestamp;pressure;altitude;pressure_sealevel;temperature;humidity
7376;BME280;3728;42.266;24.944;2023-04-24T00:01:37;99436.81;;;11.53;83.95
7376;BME280;3728;42.266;24.944;2023-04-24T00:04:06;99441.91;;;11.76;84.26
7376;BME280;3728;42.266;24.944;2023-04-24T00:06:37;99439.47;;;11.79;83.74
7376;BME280;3728;42.266;24.944;2023-04-24T00:09:05;99447.50;;;11.74;83.96
7376;BME280;3728;42.266;24.944;2023-04-24T00:11:32;99446.38;;;11.66;84.33
7376;BME280;3728;42.266;24.944;2023-04-24T00:14:00;99433.91;;;11.72;84.01
7376;BME280;3728;42.266;24.944;2023-04-24T00:16:27;99431.72;;;11.65;84.39
7376;BME280;3728;42.266;24.944;2023-04-24T00:18:55;99432.34;;;11.54;84.51
7376;BME280;3728;42.266;24.944;2023-04-24T00:21:23;99432.34;;;11.54;85.39
7376;BME280;3728;42.266;24.944;2023-04-24T00:23:52;99428.00;;;11.49;86.20
7376;BME280;3728;42.266;24.944;2023-04-24T00:26:20;99437.09;;;11.52;85.57
7376;BME280;3728;42.266;24.944;2023-04-24T00:28:47;99424.91;;;11.47;85.21
7376;BME280;3728;42.266;24.944;2023-04-24T00:31:15;99429.53;;;11.50;85.43
7376;BME280;3728;42.266;24.944;2023-04-24T00:33:42;99422.47;;;11.51;85.80
7376;BME280;3728;42.266;24.944;2023-04-24T00:36:10;99415.34;;;11.43;86.75
7376;BME280;3728;42.266;24.944;2023-04-24T00:38:37;99414.75;;;11.46;85.65
7376;BME280;3728;42.266;24.944;2023-04-24T00:41:05;99423.22;;;11.43;85.82
7376;BME280;3728;42.266;24.944;2023-04-24T00:43:33;99429.53;;;11.50;85.72
7376;BME280;3728;42.266;24.944;2023-04-24T00:46:00;99427.03;;;11.28;86.47
7376;BME280;3728;42.266;24.944;2023-04-24T00:48:28;99419.03;;;11.33;86.46
7376;BME280;3728;42.266;24.944;2023-04-24T00:50:56;99417.19;;;11.34;85.94
7376;BME280;3728;42.266;24.944;2023-04-24T00:53:25;99426.28;;;11.28;85.92
7376;BME280;3728;42.266;24.944;2023-04-24T00:55:52;99426.78;;;11.47;85.42
7376;BME280;3728;42.266;24.944;2023-04-24T00:58:20;99424.91;;;11.30;84.74
7376;BME280;3728;42.266;24.944;2023-04-24T01:00:49;99422.44;;;11.25;85.49
7376;BME280;3728;42.266;24.944;2023-04-24T01:03:25;99419.50;;;11.35;84.88
7376;BME280;3728;42.266;24.944;2023-04-24T01:05:56;99406.84;;;11.29;84.58
7376;BME280;3728;42.266;24.944;2023-04-24T01:08:26;99412.22;;;11.24;85.67
7376;BME280;3728;42.266;24.944;2023-04-24T01:10:56;99403.75;;;11.18;87.57
7376;BME280;3728;42.266;24.944;2023-04-24T01:13:24;99414.53;;;11.08;87.06
7376;BME280;3728;42.266;24.944;2023-04-24T01:15:52;99416.22;;;11.13;87.45
7376;BME280;3728;42.266;24.944;2023-04-24T01:18:19;99415.25;;;11.00;88.17
7376;BME280;3728;42.266;24.944;2023-04-24T01:20:51;99414.84;;;11.15;87.16
7376;BME280;3728;42.266;24.944;2023-04-24T01:23:20;99419.81;;;11.25;86.83
7376;BME280;3728;42.266;24.944;2023-04-24T01:25:50;99421.03;;;11.28;85.36
7376;BME280;3728;42.266;24.944;2023-04-24T01:28:19;99421.84;;;11.54;83.34
7376;BME280;3728;42.266;24.944;2023-04-24T01:30:47;99419.16;;;11.20;84.91
7376;BME280;3728;42.266;24.944;2023-04-24T01:33:15;99426.25;;;11.19;85.09
7376;BME280;3728;42.266;24.944;2023-04-24T01:35:43;99412.31;;;10.93;86.18
7376;BME280;3728;42.266;24.944;2023-04-24T01:38:12;99405.47;;;10.75;87.31
7376;BME280;3728;42.266;24.944;2023-04-24T01:40:39;99414.81;;;10.59;87.37
7376;BME280;3728;42.266;24.944;2023-04-24T01:43:07;99413.13;;;10.63;87.78
7376;BME280;3728;42.266;24.944;2023-04-24T01:45:34;99413.69;;;10.51;88.23
7376;BME280;3728;42.266;24.944;2023-04-24T01:48:03;99413.06;;;10.46;88.80
7376;BME280;3728;42.266;24.944;2023-04-24T01:50:31;99404.53;;;10.32;90.17
7376;BME280;3728;42.266;24.944;2023-04-24T01:52:59;99400.53;;;10.34;90.67
7376;BME280;3728;42.266;24.944;2023-04-24T01:55:28;99410.72;;;10.36;90.60
7376;BME280;3728;42.266;24.944;2023-04-24T01:57:56;99401.81;;;10.45;90.69
7376;BME280;3728;42.266;24.944;2023-04-24T02:00:24;99403.34;;;10.46;91.41
7376;BME280;3728;42.266;24.944;2023-04-24T02:02:52;99413.66;;;10.43;91.71
7376;BME280;3728;42.266;24.944;2023-04-24T02:05:23;99425.41;;;10.54;91.37
7376;BME280;3728;42.266;24.944;2023-04-24T02:07:50;99416.63;;;10.50;91.39
7376;BME280;3728;42.266;24.944;2023-04-24T02:10:18;99419.72;;;10.52;91.46
7376;BME280;3728;42.266;24.944;2023-04-24T02:12:45;99419.06;;;10.46;91.16
7376;BME280;3728;42.266;24.944;2023-04-24T02:15:14;99409.72;;;10.54;91.01
7376;BME280;3728;42.266;24.944;2023-04-24T02:17:41;99407.84;;;10.46;91.99
7376;BME280;3728;42.266;24.944;2023-04-24T02:20:09;99401.97;;;10.49;92.02
7376;BME280;3728;42.266;24.944;2023-04-24T02:22:37;99408.03;;;10.58;91.82
7376;BME280;3728;42.266;24.944;2023-04-24T02:25:05;99406.16;;;10.50;91.88
7376;BME280;3728;42.266;24.944;2023-04-24T02:27:33;99402.31;;;10.56;91.75
7376;BME280;3728;42.266;24.944;2023-04-24T02:30:04;99403.88;;;10.57;91.90
7376;BME280;3728;42.266;24.944;2023-04-24T02:32:32;99401.88;;;10.62;91.87
7376;BME280;3728;42.266;24.944;2023-04-24T02:35:00;99388.56;;;10.42;92.30
7376;BME280;3728;42.266;24.944;2023-04-24T02:37:28;99394.13;;;10.49;92.70
7376;BME280;3728;42.266;24.944;2023-04-24T02:39:56;99386.47;;;10.52;92.17
7376;BME280;3728;42.266;24.944;2023-04-24T02:42:24;99386.16;;;10.54;92.21
7376;BME280;3728;42.266;24.944;2023-04-24T02:44:51;99384.94;;;10.60;91.66
7376;BME280;3728;42.266;24.944;2023-04-24T02:47:19;99392.31;;;10.58;91.24
7376;BME280;3728;42.266;24.944;2023-04-24T02:49:48;99402.59;;;10.85;89.39
7376;BME280;3728;42.266;24.944;2023-04-24T02:52:15;99398.88;;;10.77;89.13
7376;BME280;3728;42.266;24.944;2023-04-24T02:54:43;99392.97;;;10.63;89.86
7376;BME280;3728;42.266;24.944;2023-04-24T02:57:11;99391.84;;;10.56;90.11
7376;BME280;3728;42.266;24.944;2023-04-24T02:59:40;99399.16;;;10.37;90.97
7376;BME280;3728;42.266;24.944;2023-04-24T03:02:08;99394.66;;;10.28;92.54
7376;BME280;3728;42.266;24.944;2023-04-24T03:04:36;99380.34;;;10.35;92.77
7376;BME280;3728;42.266;24.944;2023-04-24T03:07:04;99380.06;;;10.36;93.58
7376;BME280;3728;42.266;24.944;2023-04-24T03:09:32;99394.47;;;10.25;92.16
7376;BME280;3728;42.266;24.944;2023-04-24T03:11:59;99394.00;;;10.23;93.36
7376;BME280;3728;42.266;24.944;2023-04-24T03:14:27;99388.84;;;10.32;93.29
7376;BME280;3728;42.266;24.944;2023-04-24T03:16:57;99387.97;;;10.45;93.09
7376;BME280;3728;42.266;24.944;2023-04-24T03:19:25;99393.78;;;10.42;93.34
7376;BME280;3728;42.266;24.944;2023-04-24T03:22:02;99397.44;;;10.32;93.62
7376;BME280;3728;42.266;24.944;2023-04-24T03:24:33;99398.56;;;10.40;93.25
7376;BME280;3728;42.266;24.944;2023-04-24T03:27:00;99400.00;;;10.23;94.92
7376;BME280;3728;42.266;24.944;2023-04-24T03:29:54;99399.59;;;10.30;94.38
7376;BME280;3728;42.266;24.944;2023-04-24T03:32:45;99396.16;;;10.52;94.16
7376;BME280;3728;42.266;24.944;2023-04-24T03:35:17;99399.69;;;10.47;94.10
7376;BME280;3728;42.266;24.944;2023-04-24T03:37:45;99396.41;;;10.42;94.51
7376;BME280;3728;42.266;24.944;2023-04-24T03:40:31;99397.72;;;10.53;94.37
7376;BME280;3728;42.266;24.944;2023-04-24T03:43:02;99408.03;;;10.58;94.10
7376;BME280;3728;42.266;24.944;2023-04-24T03:45:34;99413.59;;;10.65;90.85
7376;BME280;3728;42.266;24.944;2023-04-24T03:48:02;99428.69;;;10.59;90.82
7376;BME280;3728;42.266;24.944;2023-04-24T03:50:31;99426.31;;;10.49;89.74
7376;BME280;3728;42.266;24.944;2023-04-24T03:52:59;99430.44;;;10.42;90.97
7376;BME280;3728;42.266;24.944;2023-04-24T03:55:40;99435.63;;;10.64;91.75
7376;BME280;3728;42.266;24.944;2023-04-24T03:58:09;99436.56;;;10.68;90.81
7376;BME280;3728;42.266;24.944;2023-04-24T04:00:38;99431.81;;;10.70;90.09
7376;BME280;3728;42.266;24.944;2023-04-24T04:03:32;99431.06;;;10.39;91.79
7376;BME280;3728;42.266;24.944;2023-04-24T04:06:01;99429.28;;;10.25;92.89
7376;BME280;3728;42.266;24.944;2023-04-24T04:08:28;99438.06;;;10.29;93.96
7376;BME280;3728;42.266;24.944;2023-04-24T04:10:57;99443.97;;;10.35;93.91
7376;BME280;3728;42.266;24.944;2023-04-24T04:13:28;99445.31;;;10.32;93.53
7376;BME280;3728;42.266;24.944;2023-04-24T04:15:56;99448.13;;;10.36;94.64
7376;BME280;3728;42.266;24.944;2023-04-24T04:18:23;99443.53;;;10.42;94.50
7376;BME280;3728;42.266;24.944;2023-04-24T04:20:51;99444.72;;;10.36;95.46
7376;BME280;3728;42.266;24.944;2023-04-24T04:23:19;99443.88;;;10.49;95.78
7376;BME280;3728;42.266;24.944;2023-04-24T04:26:06;99447.31;;;10.58;94.87
7376;BME280;3728;42.266;24.944;2023-04-24T04:29:00;99449.34;;;10.69;95.06
7376;BME280;3728;42.266;24.944;2023-04-24T04:31:29;99444.03;;;10.83;95.04
7376;BME280;3728;42.266;24.944;2023-04-24T04:34:00;99447.47;;;10.92;93.59
7376;BME280;3728;42.266;24.944;2023-04-24T04:36:30;99441.47;;;11.00;93.02
7376;BME280;3728;42.266;24.944;2023-04-24T04:39:07;99445.19;;;11.08;92.83
7376;BME280;3728;42.266;24.944;2023-04-24T04:41:51;99438.25;;;11.12;91.98
7376;BME280;3728;42.266;24.944;2023-04-24T04:44:22;99449.72;;;11.24;91.57
7376;BME280;3728;42.266;24.944;2023-04-24T04:46:50;99448.34;;;11.35;91.03
7376;BME280;3728;42.266;24.944;2023-04-24T04:49:28;99453.88;;;11.34;89.79
7376;BME280;3728;42.266;24.944;2023-04-24T04:51:57;99457.28;;;11.43;89.96
7376;BME280;3728;42.266;24.944;2023-04-24T04:54:26;99449.28;;;11.48;88.96
7376;BME280;3728;42.266;24.944;2023-04-24T04:56:55;99453.00;;;11.47;88.74
7376;BME280;3728;42.266;24.944;2023-04-24T04:59:23;99447.44;;;11.57;88.74
7376;BME280;3728;42.266;24.944;2023-04-24T05:01:57;99451.50;;;11.72;88.15
7376;BME280;3728;42.266;24.944;2023-04-24T05:04:25;99446.09;;;11.77;87.78
7376;BME280;3728;42.266;24.944;2023-04-24T05:06:53;99451.06;;;11.87;86.75
7376;BME280;3728;42.266;24.944;2023-04-24T05:09:22;99458.59;;;11.88;86.40
7376;BME280;3728;42.266;24.944;2023-04-24T05:11:53;99450.56;;;12.02;86.22
7376;BME280;3728;42.266;24.944;2023-04-24T05:14:23;99445.00;;;12.12;86.18
7376;BME280;3728;42.266;24.944;2023-04-24T05:16:51;99448.25;;;12.09;85.41
7376;BME280;3728;42.266;24.944;2023-04-24T05:19:20;99448.69;;;12.19;84.87
7376;BME280;3728;42.266;24.944;2023-04-24T05:21:48;99446.97;;;12.32;82.00
7376;BME280;3728;42.266;24.944;2023-04-24T05:24:15;99438.13;;;12.36;82.59
7376;BME280;3728;42.266;24.944;2023-04-24T05:27:04;99444.81;;;12.34;82.34
7376;BME280;3728;42.266;24.944;2023-04-24T05:29:37;99438.25;;;12.57;81.31
7376;BME280;3728;42.266;24.944;2023-04-24T05:32:05;99432.72;;;12.88;79.98
7376;BME280;3728;42.266;24.944;2023-04-24T05:34:33;99424.41;;;12.77;80.75
7376;BME280;3728;42.266;24.944;2023-04-24T05:37:02;99432.41;;;13.48;75.99
7376;BME280;3728;42.266;24.944;2023-04-24T05:39:30;99428.69;;;13.28;78.51
7376;BME280;3728;42.266;24.944;2023-04-24T05:41:58;99431.66;;;13.18;80.14
7376;BME280;3728;42.266;24.944;2023-04-24T05:44:27;99433.09;;;13.57;77.33
7376;BME280;3728;42.266;24.944;2023-04-24T05:46:55;99433.06;;;13.65;76.58
7376;BME280;3728;42.266;24.944;2023-04-24T05:49:23;99432.84;;;13.50;77.58
7376;BME280;3728;42.266;24.944;2023-04-24T05:51:51;99434.47;;;13.63;77.27
7376;BME280;3728;42.266;24.944;2023-04-24T05:54:18;99424.47;;;13.56;77.95
7376;BME280;3728;42.266;24.944;2023-04-24T05:56:46;99433.81;;;13.45;78.97
7376;BME280;3728;42.266;24.944;2023-04-24T05:59:21;99428.75;;;13.82;78.14
7376;BME280;3728;42.266;24.944;2023-04-24T06:01:50;99435.38;;;14.00;76.19
7376;BME280;3728;42.266;24.944;2023-04-24T06:04:19;99435.88;;;14.14;76.09
7376;BME280;3728;42.266;24.944;2023-04-24T06:06:48;99430.22;;;13.91;76.71
7376;BME280;3728;42.266;24.944;2023-04-24T06:09:17;99429.75;;;13.89;77.13
7376;BME280;3728;42.266;24.944;2023-04-24T06:11:45;99430.13;;;14.00;77.41
7376;BME280;3728;42.266;24.944;2023-04-24T06:14:13;99429.19;;;14.16;76.34
7376;BME280;3728;42.266;24.944;2023-04-24T06:16:59;99424.69;;;14.50;74.09
7376;BME280;3728;42.266;24.944;2023-04-24T06:19:33;99423.03;;;14.45;74.78
7376;BME280;3728;42.266;24.944;2023-04-24T06:22:01;99427.78;;;14.64;75.14
7376;BME280;3728;42.266;24.944;2023-04-24T06:24:29;99433.59;;;14.57;75.48
7376;BME280;3728;42.266;24.944;2023-04-24T06:26:58;99431.97;;;14.65;76.79
7376;BME280;3728;42.266;24.944;2023-04-24T06:29:27;99431.19;;;15.00;73.16
7376;BME280;3728;42.266;24.944;2023-04-24T06:31:55;99439.53;;;15.15;74.44
7376;BME280;3728;42.266;24.944;2023-04-24T06:34:22;99432.16;;;15.32;72.95
7376;BME280;3728;42.266;24.944;2023-04-24T06:36:50;99434.44;;;15.34;71.39
7376;BME280;3728;42.266;24.944;2023-04-24T06:39:18;99433.22;;;15.43;68.99
7376;BME280;3728;42.266;24.944;2023-04-24T06:41:45;99429.28;;;15.49;69.16
7376;BME280;3728;42.266;24.944;2023-04-24T06:44:18;99430.94;;;15.30;70.10
7376;BME280;3728;42.266;24.944;2023-04-24T06:46:46;99431.03;;;15.45;71.25
7376;BME280;3728;42.266;24.944;2023-04-24T06:49:13;99430.81;;;15.38;71.96
7376;BME280;3728;42.266;24.944;2023-04-24T06:51:42;99438.06;;;15.53;69.90
7376;BME280;3728;42.266;24.944;2023-04-24T06:54:10;99433.34;;;15.59;70.83
7376;BME280;3728;42.266;24.944;2023-04-24T06:56:37;99428.06;;;15.87;70.06
7376;BME280;3728;42.266;24.944;2023-04-24T06:59:05;99432.72;;;16.05;71.35
7376;BME280;3728;42.266;24.944;2023-04-24T07:01:32;99435.97;;;16.14;67.34
7376;BME280;3728;42.266;24.944;2023-04-24T07:04:00;99429.91;;;16.14;67.78
7376;BME280;3728;42.266;24.944;2023-04-24T07:06:28;99436.44;;;16.32;66.19
7376;BME280;3728;42.266;24.944;2023-04-24T07:08:58;99444.28;;;16.44;66.14
7376;BME280;3728;42.266;24.944;2023-04-24T07:11:27;99435.47;;;16.52;67.13
7376;BME280;3728;42.266;24.944;2023-04-24T07:13:55;99443.19;;;16.45;69.25
7376;BME280;3728;42.266;24.944;2023-04-24T07:16:23;99436.16;;;16.65;68.03
7376;BME280;3728;42.266;24.944;2023-04-24T07:18:50;99435.91;;;16.70;65.19
7376;BME280;3728;42.266;24.944;2023-04-24T07:21:18;99438.09;;;16.83;67.20
7376;BME280;3728;42.266;24.944;2023-04-24T07:23:46;99437.41;;;16.86;66.43
7376;BME280;3728;42.266;24.944;2023-04-24T07:26:13;99437.84;;;16.88;67.25
7376;BME280;3728;42.266;24.944;2023-04-24T07:28:41;99434.09;;;17.24;64.35
7376;BME280;3728;42.266;24.944;2023-04-24T07:31:10;99433.81;;;17.45;64.57
7376;BME280;3728;42.266;24.944;2023-04-24T07:33:38;99444.16;;;17.69;62.16
7376;BME280;3728;42.266;24.944;2023-04-24T07:36:06;99435.44;;;17.88;61.41
7376;BME280;3728;42.266;24.944;2023-04-24T07:38:33;99433.00;;;17.79;62.30
7376;BME280;3728;42.266;24.944;2023-04-24T07:41:01;99435.28;;;17.81;63.70
7376;BME280;3728;42.266;24.944;2023-04-24T07:43:28;99434.47;;;17.76;62.38
7376;BME280;3728;42.266;24.944;2023-04-24T07:45:56;99437.06;;;17.92;62.90
7376;BME280;3728;42.266;24.944;2023-04-24T07:48:24;99437.50;;;18.59;60.40
7376;BME280;3728;42.266;24.944;2023-04-24T07:50:53;99434.81;;;18.13;62.75
7376;BME280;3728;42.266;24.944;2023-04-24T07:53:21;99433.13;;;18.47;61.91
7376;BME280;3728;42.266;24.944;2023-04-24T07:55:48;99427.22;;;18.80;61.35
7376;BME280;3728;42.266;24.944;2023-04-24T07:58:16;99431.44;;;18.58;59.95
7376;BME280;3728;42.266;24.944;2023-04-24T08:00:43;99428.41;;;18.37;62.82
7376;BME280;3728;42.266;24.944;2023-04-24T08:03:11;99427.50;;;18.49;62.43
7376;BME280;3728;42.266;24.944;2023-04-24T08:05:39;99425.69;;;18.33;62.50
7376;BME280;3728;42.266;24.944;2023-04-24T08:08:09;99431.38;;;18.55;62.16
7376;BME280;3728;42.266;24.944;2023-04-24T08:10:37;99421.97;;;18.61;62.36
7376;BME280;3728;42.266;24.944;2023-04-24T08:13:04;99420.72;;;18.77;61.33
7376;BME280;3728;42.266;24.944;2023-04-24T08:15:32;99424.59;;;18.57;62.08
7376;BME280;3728;42.266;24.944;2023-04-24T08:17:59;99428.31;;;18.53;60.19
7376;BME280;3728;42.266;24.944;2023-04-24T08:20:27;99421.97;;;18.83;61.71
7376;BME280;3728;42.266;24.944;2023-04-24T08:22:55;99416.91;;;19.01;62.62
7376;BME280;3728;42.266;24.944;2023-04-24T08:25:23;99421.41;;;19.23;60.83
7376;BME280;3728;42.266;24.944;2023-04-24T08:27:51;99418.34;;;19.47;57.48
7376;BME280;3728;42.266;24.944;2023-04-24T08:30:18;99405.47;;;19.49;59.40
7376;BME280;3728;42.266;24.944;2023-04-24T08:32:49;99407.13;;;19.05;61.45
7376;BME280;3728;42.266;24.944;2023-04-24T08:35:16;99402.53;;;19.32;60.67
7376;BME280;3728;42.266;24.944;2023-04-24T08:37:44;99401.28;;;19.22;59.88
7376;BME280;3728;42.266;24.944;2023-04-24T08:40:15;99399.31;;;18.89;62.68
7376;BME280;3728;42.266;24.944;2023-04-24T08:42:44;99386.50;;;18.69;63.35
7376;BME280;3728;42.266;24.944;2023-04-24T08:45:12;99388.28;;;19.13;61.90
7376;BME280;3728;42.266;24.944;2023-04-24T08:47:41;99387.50;;;19.13;62.70
7376;BME280;3728;42.266;24.944;2023-04-24T08:50:11;99389.25;;;19.02;61.08
7376;BME280;3728;42.266;24.944;2023-04-24T08:52:39;99386.63;;;19.05;62.54
7376;BME280;3728;42.266;24.944;2023-04-24T08:55:07;99379.72;;;19.27;60.89
7376;BME280;3728;42.266;24.944;2023-04-24T08:57:36;99377.16;;;19.34;60.87
7376;BME280;3728;42.266;24.944;2023-04-24T09:00:07;99381.06;;;19.40;59.83
7376;BME280;3728;42.266;24.944;2023-04-24T09:02:42;99371.31;;;19.51;60.88
7376;BME280;3728;42.266;24.944;2023-04-24T09:05:14;99371.41;;;19.58;61.34
7376;BME280;3728;42.266;24.944;2023-04-24T09:07:54;99376.25;;;19.86;59.13
7376;BME280;3728;42.266;24.944;2023-04-24T09:10:25;99370.47;;;20.17;58.27
7376;BME280;3728;42.266;24.944;2023-04-24T09:12:55;99370.75;;;20.45;57.26
7376;BME280;3728;42.266;24.944;2023-04-24T09:15:27;99357.38;;;20.96;57.07
7376;BME280;3728;42.266;24.944;2023-04-24T09:17:55;99353.53;;;20.83;56.18
7376;BME280;3728;42.266;24.944;2023-04-24T09:20:23;99357.16;;;20.58;56.35
7376;BME280;3728;42.266;24.944;2023-04-24T09:22:54;99355.91;;;21.02;53.68
7376;BME280;3728;42.266;24.944;2023-04-24T09:25:22;99350.72;;;20.62;55.06
7376;BME280;3728;42.266;24.944;2023-04-24T09:27:53;99351.25;;;20.85;56.42
7376;BME280;3728;42.266;24.944;2023-04-24T09:30:21;99355.13;;;20.98;54.17
7376;BME280;3728;42.266;24.944;2023-04-24T09:32:49;99351.50;;;21.35;54.18
7376;BME280;3728;42.266;24.944;2023-04-24T09:35:28;99341.63;;;21.39;54.65
7376;BME280;3728;42.266;24.944;2023-04-24T09:37:57;99347.75;;;21.53;52.78
7376;BME280;3728;42.266;24.944;2023-04-24T09:40:25;99340.94;;;21.63;55.26
7376;BME280;3728;42.266;24.944;2023-04-24T09:42:55;99337.44;;;21.38;54.84
7376;BME280;3728;42.266;24.944;2023-04-24T09:45:36;99340.81;;;21.28;55.36
7376;BME280;3728;42.266;24.944;2023-04-24T09:48:05;99336.72;;;21.51;53.39
7376;BME280;3728;42.266;24.944;2023-04-24T09:50:36;99332.44;;;21.22;53.07
7376;BME280;3728;42.266;24.944;2023-04-24T09:53:06;99334.00;;;21.27;54.47
7376;BME280;3728;42.266;24.944;2023-04-24T09:55:45;99330.19;;;21.28;54.24
7376;BME280;3728;42.266;24.944;2023-04-24T09:58:15;99323.75;;;21.39;52.60
7376;BME280;3728;42.266;24.944;2023-04-24T10:00:42;99323.47;;;21.76;52.49
7376;BME280;3728;42.266;24.944;2023-04-24T10:03:10;99308.66;;;22.21;51.97
7376;BME280;3728;42.266;24.944;2023-04-24T10:05:41;99305.59;;;22.43;51.42
7376;BME280;3728;42.266;24.944;2023-04-24T10:08:11;99299.88;;;22.34;51.15
7376;BME280;3728;42.266;24.944;2023-04-24T10:10:44;99299.13;;;22.13;53.41
7376;BME280;3728;42.266;24.944;2023-04-24T10:13:14;99297.59;;;22.22;50.81
7376;BME280;3728;42.266;24.944;2023-04-24T10:15:47;99296.06;;;22.46;51.01
7376;BME280;3728;42.266;24.944;2023-04-24T10:18:16;99293.75;;;22.69;49.35
7376;BME280;3728;42.266;24.944;2023-04-24T10:20:45;99297.50;;;22.89;51.32
7376;BME280;3728;42.266;24.944;2023-04-24T10:23:13;99295.19;;;22.98;49.60
7376;BME280;3728;42.266;24.944;2023-04-24T10:25:40;99299.59;;;23.33;49.54
7376;BME280;3728;42.266;24.944;2023-04-24T10:28:09;99288.50;;;23.45;48.99
7376;BME280;3728;42.266;24.944;2023-04-24T10:30:38;99294.78;;;23.76;48.46
7376;BME280;3728;42.266;24.944;2023-04-24T10:33:10;99292.44;;;23.85;46.93
7376;BME280;3728;42.266;24.944;2023-04-24T10:35:42;99292.13;;;24.27;46.99
7376;BME280;3728;42.266;24.944;2023-04-24T10:38:17;99292.34;;;24.43;43.59
7376;BME280;3728;42.266;24.944;2023-04-24T10:41:13;99286.56;;;24.01;43.77
7376;BME280;3728;42.266;24.944;2023-04-24T10:43:46;99282.31;;;24.10;43.17
7376;BME280;3728;42.266;24.944;2023-04-24T10:46:19;99280.13;;;23.95;43.80
7376;BME280;3728;42.266;24.944;2023-04-24T10:48:54;99284.56;;;24.15;43.43
7376;BME280;3728;42.266;24.944;2023-04-24T10:51:24;99281.28;;;24.41;40.74
7376;BME280;3728;42.266;24.944;2023-04-24T10:54:36;99278.06;;;24.16;43.81
7376;BME280;3728;42.266;24.944;2023-04-24T11:00:16;99278.63;;;24.38;42.51
7376;BME280;3728;42.266;24.944;2023-04-24T11:02:48;99280.44;;;24.07;42.15
7376;BME280;3728;42.266;24.944;2023-04-24T11:05:18;99281.22;;;24.04;42.15
7376;BME280;3728;42.266;24.944;2023-04-24T11:08:15;99272.44;;;24.00;42.73
7376;BME280;3728;42.266;24.944;2023-04-24T11:10:55;99260.34;;;23.85;42.29
7376;BME280;3728;42.266;24.944;2023-04-24T11:19:09;99245.03;;;24.67;41.99
7376;BME280;3728;42.266;24.944;2023-04-24T11:21:59;99228.38;;;24.86;40.92
7376;BME280;3728;42.266;24.944;2023-04-24T11:27:21;99231.16;;;24.79;40.39
7376;BME280;3728;42.266;24.944;2023-04-24T11:35:00;99213.44;;;24.89;41.88
7376;BME280;3728;42.266;24.944;2023-04-24T11:37:40;99206.56;;;25.14;40.67
7376;BME280;3728;42.266;24.944;2023-04-24T11:40:11;99203.53;;;25.12;42.34
7376;BME280;3728;42.266;24.944;2023-04-24T11:42:47;99192.84;;;25.09;42.04
7376;BME280;3728;42.266;24.944;2023-04-24T11:45:24;99194.88;;;25.28;42.85
7376;BME280;3728;42.266;24.944;2023-04-24T11:47:54;99193.59;;;25.63;41.04
7376;BME280;3728;42.266;24.944;2023-04-24T11:50:24;99195.88;;;25.88;41.24
7376;BME280;3728;42.266;24.944;2023-04-24T11:52:54;99187.84;;;25.38;42.63
7376;BME280;3728;42.266;24.944;2023-04-24T11:55:23;99183.28;;;25.35;42.94
7376;BME280;3728;42.266;24.944;2023-04-24T11:57:57;99172.81;;;25.44;39.07
7376;BME280;3728;42.266;24.944;2023-04-24T12:00:26;99172.28;;;25.02;42.13
7376;BME280;3728;42.266;24.944;2023-04-24T12:03:08;99175.75;;;24.99;40.51
7376;BME280;3728;42.266;24.944;2023-04-24T12:05:39;99168.06;;;25.01;41.38
7376;BME280;3728;42.266;24.944;2023-04-24T12:08:07;99162.41;;;25.49;41.18
7376;BME280;3728;42.266;24.944;2023-04-24T12:10:35;99155.31;;;25.36;40.44
7376;BME280;3728;42.266;24.944;2023-04-24T12:13:03;99143.25;;;25.24;40.23
7376;BME280;3728;42.266;24.944;2023-04-24T12:15:31;99136.09;;;25.41;38.63
7376;BME280;3728;42.266;24.944;2023-04-24T12:17:59;99138.91;;;25.57;40.57
7376;BME280;3728;42.266;24.944;2023-04-24T12:20:29;99133.31;;;25.71;41.39
7376;BME280;3728;42.266;24.944;2023-04-24T12:22:59;99127.59;;;25.89;41.28
7376;BME280;3728;42.266;24.944;2023-04-24T12:25:28;99123.97;;;25.79;39.93
7376;BME280;3728;42.266;24.944;2023-04-24T12:28:16;99123.34;;;25.71;40.88
7376;BME280;3728;42.266;24.944;2023-04-24T12:30:47;99117.84;;;25.78;41.28
7376;BME280;3728;42.266;24.944;2023-04-24T12:33:19;99120.41;;;25.39;41.67
7376;BME280;3728;42.266;24.944;2023-04-24T12:35:51;99109.75;;;25.59;41.04
7376;BME280;3728;42.266;24.944;2023-04-24T12:38:24;99116.06;;;25.49;41.49
7376;BME280;3728;42.266;24.944;2023-04-24T12:41:11;99109.72;;;25.62;39.69
7376;BME280;3728;42.266;24.944;2023-04-24T12:43:51;99099.75;;;25.83;42.83
7376;BME280;3728;42.266;24.944;2023-04-24T12:46:19;99099.19;;;26.14;41.54
7376;BME280;3728;42.266;24.944;2023-04-24T12:48:48;99091.66;;;25.86;41.01
7376;BME280;3728;42.266;24.944;2023-04-24T12:51:16;99082.56;;;26.00;40.32
7376;BME280;3728;42.266;24.944;2023-04-24T12:53:43;99078.78;;;25.97;40.99
7376;BME280;3728;42.266;24.944;2023-04-24T12:56:11;99071.28;;;26.08;39.35
7376;BME280;3728;42.266;24.944;2023-04-24T12:58:38;99067.91;;;26.24;40.72
7376;BME280;3728;42.266;24.944;2023-04-24T13:01:06;99065.44;;;26.33;40.00
7376;BME280;3728;42.266;24.944;2023-04-24T13:03:34;99058.81;;;26.37;40.01
7376;BME280;3728;42.266;24.944;2023-04-24T13:06:02;99053.47;;;26.54;39.28
7376;BME280;3728;42.266;24.944;2023-04-24T13:08:29;99053.91;;;26.68;39.66
7376;BME280;3728;42.266;24.944;2023-04-24T13:10:57;99046.84;;;26.74;39.15
7376;BME280;3728;42.266;24.944;2023-04-24T13:13:24;99043.34;;;26.77;39.31
7376;BME280;3728;42.266;24.944;2023-04-24T13:15:52;99044.25;;;26.71;39.35
7376;BME280;3728;42.266;24.944;2023-04-24T13:18:20;99044.25;;;26.71;40.33
7376;BME280;3728;42.266;24.944;2023-04-24T13:20:47;99035.59;;;26.47;40.31
7376;BME280;3728;42.266;24.944;2023-04-24T13:23:15;99031.97;;;26.70;40.11
7376;BME280;3728;42.266;24.944;2023-04-24T13:25:43;99028.00;;;26.94;39.69
7376;BME280;3728;42.266;24.944;2023-04-24T13:28:11;99031.28;;;27.01;38.88
7376;BME280;3728;42.266;24.944;2023-04-24T13:30:38;99018.72;;;26.95;39.35
7376;BME280;3728;42.266;24.944;2023-04-24T13:33:06;99026.78;;;26.95;40.71
7376;BME280;3728;42.266;24.944;2023-04-24T13:35:34;99023.88;;;27.05;39.11
7376;BME280;3728;42.266;24.944;2023-04-24T13:38:01;99017.84;;;27.30;39.06
7376;BME280;3728;42.266;24.944;2023-04-24T13:40:32;99015.13;;;27.46;38.68
7376;BME280;3728;42.266;24.944;2023-04-24T13:43:00;99013.72;;;27.70;38.10